Time;durP1;ratioP1;P1;durP2;ratioP2;P2;SDS_P1;SDS_P2;PMS_P1;PMS_P2;Temp;Humidity;BMP_temperature;BMP_pressure;BME280_temperature;BME280_humidity;BME280_pressure;Samples;Min_cycle;Max_cycle;Signal;HPM_P1;HPM_P2
2023/02/01 00:00:42;;;;;;;12.27;6.68;;;5.00;99.90;;;;;;2045305;28;20125;-74
2023/02/01 00:01:44;;;;;;;12.98;5.70;;;5.00;99.90;;;;;;2043882;28;20043;-75
2023/02/01 00:02:45;;;;;;;12.82;5.63;;;5.00;99.90;;;;;;2047846;28;20046;-75
2023/02/01 00:03:45;;;;;;;14.70;5.72;;;5.00;99.90;;;;;;2037686;29;20125;-73
2023/02/01 00:04:46;;;;;;;12.82;6.20;;;4.90;99.90;;;;;;2039693;29;20063;-75
2023/02/01 00:05:56;;;;;;;10.65;5.95;;;4.90;99.90;;;;;;2047268;28;20050;-75
2023/02/01 00:06:56;;;;;;;14.55;6.50;;;5.00;99.90;;;;;;2042398;28;20039;-76
2023/02/01 00:07:57;;;;;;;12.85;5.82;;;4.90;99.90;;;;;;2046306;28;20348;-76
2023/02/01 00:08:57;;;;;;;12.05;5.75;;;4.90;99.90;;;;;;2035735;29;20578;-76
2023/02/01 00:09:58;;;;;;;14.20;6.00;;;4.90;99.90;;;;;;2037492;29;20740;-75
2023/02/01 00:11:08;;;;;;;11.85;5.47;;;4.90;99.90;;;;;;2035677;29;20540;-77
2023/02/01 00:12:09;;;;;;;14.60;6.05;;;4.90;99.90;;;;;;2033709;29;20050;-74
2023/02/01 00:13:09;;;;;;;14.43;5.95;;;4.90;99.90;;;;;;2048776;28;20103;-75
2023/02/01 00:14:10;;;;;;;13.43;5.93;;;4.90;99.90;;;;;;2049104;28;20033;-74
2023/02/01 00:15:11;;;;;;;11.73;5.68;;;5.00;99.90;;;;;;2045096;28;20027;-75
2023/02/01 00:16:17;;;;;;;12.55;5.55;;;5.00;99.90;;;;;;2037650;29;20027;-73
2023/02/01 00:17:18;;;;;;;15.80;5.60;;;5.00;99.90;;;;;;2036853;29;20660;-77
2023/02/01 00:18:18;;;;;;;16.63;6.00;;;5.00;99.90;;;;;;2041431;29;20094;-73
2023/02/01 00:19:19;;;;;;;12.30;5.32;;;5.00;99.90;;;;;;2049200;28;20087;-74
2023/02/01 00:20:19;;;;;;;10.65;5.45;;;5.00;99.90;;;;;;2039237;29;20051;-75
2023/02/01 00:21:21;;;;;;;11.93;5.88;;;5.00;99.90;;;;;;2031205;29;20039;-75
2023/02/01 00:22:21;;;;;;;13.65;5.20;;;5.00;99.90;;;;;;2032345;29;20032;-75
2023/02/01 00:23:22;;;;;;;15.90;5.85;;;5.00;99.90;;;;;;2032461;29;20821;-75
2023/02/01 00:24:22;;;;;;;14.45;5.80;;;5.00;99.90;;;;;;2034636;29;20039;-76
2023/02/01 00:25:23;;;;;;;13.82;6.07;;;5.10;99.90;;;;;;2040032;29;20370;-75
2023/02/01 00:26:38;;;;;;;11.70;5.75;;;5.10;99.90;;;;;;2040982;29;20023;-76
2023/02/01 00:27:39;;;;;;;15.25;6.20;;;5.00;99.90;;;;;;2045600;28;20034;-75
2023/02/01 00:28:39;;;;;;;13.15;5.60;;;5.10;99.90;;;;;;2044470;28;20035;-76
2023/02/01 00:29:40;;;;;;;12.10;5.63;;;5.10;99.90;;;;;;2041820;29;20038;-76
2023/02/01 00:30:40;;;;;;;11.70;5.57;;;5.10;99.90;;;;;;2032082;29;20411;-75
2023/02/01 00:31:41;;;;;;;14.63;5.65;;;5.10;99.90;;;;;;2032729;29;20054;-74
2023/02/01 00:32:42;;;;;;;14.30;6.00;;;5.10;99.90;;;;;;2038216;29;20565;-76
2023/02/01 00:33:47;;;;;;;11.93;5.60;;;5.10;99.90;;;;;;2038542;29;20070;-76
2023/02/01 00:34:47;;;;;;;12.32;5.60;;;5.10;99.90;;;;;;2048127;28;20121;-75
2023/02/01 00:35:48;;;;;;;12.43;5.88;;;5.10;99.90;;;;;;2039244;29;20027;-76
2023/02/01 00:36:49;;;;;;;14.68;6.00;;;5.10;99.90;;;;;;2032066;29;20060;-77
2023/02/01 00:37:49;;;;;;;15.30;5.95;;;5.10;99.90;;;;;;2032519;29;20039;-75
2023/02/01 00:38:50;;;;;;;15.60;5.80;;;5.10;99.90;;;;;;2038240;29;20038;-76
2023/02/01 00:39:50;;;;;;;13.07;5.93;;;5.10;99.90;;;;;;2046981;28;20090;-75
2023/02/01 00:40:51;;;;;;;13.30;5.90;;;5.10;99.90;;;;;;2043990;28;20099;-76
2023/02/01 00:41:52;;;;;;;13.30;6.03;;;5.10;99.90;;;;;;2038726;29;20031;-76
2023/02/01 00:42:53;;;;;;;12.57;5.80;;;5.10;99.90;;;;;;2032738;29;20123;-71
2023/02/01 00:43:54;;;;;;;11.88;5.95;;;5.10;99.90;;;;;;2041461;29;20035;-71
2023/02/01 00:44:54;;;;;;;17.48;5.72;;;5.10;99.90;;;;;;2041064;28;20039;-72
2023/02/01 00:45:55;;;;;;;14.40;6.20;;;5.10;99.90;;;;;;2045788;28;20031;-72
2023/02/01 00:46:55;;;;;;;13.10;5.78;;;5.20;99.90;;;;;;2041117;29;20031;-71
2023/02/01 00:47:56;;;;;;;12.98;5.75;;;5.20;99.90;;;;;;2036201;29;20637;-71
2023/02/01 00:48:56;;;;;;;14.85;6.20;;;5.20;99.90;;;;;;2037069;29;20051;-72
2023/02/01 00:49:57;;;;;;;14.23;6.28;;;5.10;99.90;;;;;;2035132;29;20118;-71
2023/02/01 00:51:02;;;;;;;12.65;5.90;;;5.20;99.90;;;;;;2046592;28;20488;-70
2023/02/01 00:52:03;;;;;;;11.63;5.63;;;5.10;99.90;;;;;;2046852;28;20110;-70
2023/02/01 00:53:04;;;;;;;14.38;5.88;;;5.20;99.90;;;;;;2044193;28;20046;-70
2023/02/01 00:54:04;;;;;;;10.85;5.75;;;5.20;99.90;;;;;;2048866;28;20085;-71
2023/02/01 00:55:05;;;;;;;12.98;5.82;;;5.20;99.90;;;;;;2043850;28;20095;-71
2023/02/01 00:56:06;;;;;;;13.70;5.65;;;5.20;99.90;;;;;;2044853;28;20034;-71
2023/02/01 00:57:06;;;;;;;14.75;6.03;;;5.10;99.90;;;;;;2048782;28;20030;-73
2023/02/01 00:58:09;;;;;;;11.02;5.55;;;5.10;99.90;;;;;;2046553;28;20581;-72
2023/02/01 00:59:12;;;;;;;13.05;5.78;;;5.10;99.90;;;;;;2047763;28;20608;-73
2023/02/01 01:00:13;;;;;;;14.60;5.80;;;5.10;99.90;;;;;;2042506;28;20035;-72
2023/02/01 01:01:14;;;;;;;17.17;5.50;;;5.10;99.90;;;;;;2046374;28;20540;-70
2023/02/01 01:02:15;;;;;;;16.02;6.18;;;5.10;99.90;;;;;;2045613;28;20461;-71
2023/02/01 01:03:18;;;;;;;14.32;5.40;;;5.10;99.90;;;;;;2039624;29;20043;-70
2023/02/01 01:04:18;;;;;;;12.40;5.30;;;5.10;99.90;;;;;;2035484;29;20051;-70
2023/02/01 01:05:19;;;;;;;14.30;5.55;;;5.10;99.90;;;;;;2035440;29;20877;-70
2023/02/01 01:06:25;;;;;;;13.90;5.18;;;5.10;99.90;;;;;;2038471;29;20034;-70
2023/02/01 01:07:26;;;;;;;12.27;4.90;;;5.10;99.90;;;;;;2038947;29;20039;-70
2023/02/01 01:08:27;;;;;;;14.32;5.07;;;5.10;99.90;;;;;;2030406;29;20590;-73
2023/02/01 01:09:28;;;;;;;12.00;5.50;;;5.10;99.90;;;;;;2030214;29;20044;-71
2023/02/01 01:10:29;;;;;;;12.85;5.32;;;5.10;99.90;;;;;;2044812;28;20475;-72
2023/02/01 01:11:32;;;;;;;16.40;5.82;;;5.00;99.90;;;;;;2036589;29;20035;-71
2023/02/01 01:12:33;;;;;;;14.07;5.68;;;5.00;99.90;;;;;;2035181;29;20040;-71
2023/02/01 01:13:34;;;;;;;16.45;5.18;;;5.00;99.90;;;;;;2045416;28;20097;-70
2023/02/01 01:14:35;;;;;;;11.57;5.75;;;5.00;99.90;;;;;;2045971;28;20031;-70
2023/02/01 01:15:37;;;;;;;12.93;5.28;;;4.90;99.90;;;;;;2046418;28;20023;-70
2023/02/01 01:16:38;;;;;;;16.08;5.13;;;5.00;99.90;;;;;;2041865;28;20574;-71
2023/02/01 01:17:38;;;;;;;12.27;5.00;;;4.90;99.90;;;;;;2039513;29;20114;-71
2023/02/01 01:18:40;;;;;;;15.73;5.00;;;4.90;99.90;;;;;;2039609;29;20031;-72
2023/02/01 01:19:41;;;;;;;13.35;4.82;;;4.90;99.90;;;;;;2032428;29;20090;-71
2023/02/01 01:20:41;;;;;;;12.80;4.80;;;4.90;99.90;;;;;;2028936;29;20152;-71
2023/02/01 01:21:42;;;;;;;13.82;4.88;;;4.90;99.90;;;;;;2045539;28;20177;-71
2023/02/01 01:22:42;;;;;;;11.90;4.80;;;4.90;99.90;;;;;;2038872;29;20488;-71
2023/02/01 01:23:44;;;;;;;13.32;4.93;;;4.90;99.90;;;;;;2032327;29;20060;-71
2023/02/01 01:24:44;;;;;;;11.18;4.72;;;4.90;99.90;;;;;;2036096;29;20055;-71
2023/02/01 01:25:45;;;;;;;15.95;5.40;;;5.00;99.90;;;;;;2046945;28;20054;-73
2023/02/01 01:26:45;;;;;;;11.48;4.70;;;5.00;99.90;;;;;;2031579;29;20035;-71
2023/02/01 01:27:46;;;;;;;13.55;4.90;;;5.00;99.90;;;;;;2023037;29;20036;-71
2023/02/01 01:28:47;;;;;;;12.07;4.75;;;5.00;99.90;;;;;;2040220;29;20023;-70
2023/02/01 01:29:47;;;;;;;14.07;4.93;;;5.00;99.90;;;;;;2045515;28;20067;-72
2023/02/01 01:30:48;;;;;;;12.00;4.53;;;5.10;99.90;;;;;;2046327;28;20034;-71
2023/02/01 01:31:48;;;;;;;12.57;4.72;;;5.10;99.90;;;;;;2035291;29;20043;-71
2023/02/01 01:32:49;;;;;;;14.15;4.68;;;5.10;99.90;;;;;;2036925;29;20497;-72
2023/02/01 01:33:55;;;;;;;14.38;4.82;;;5.00;99.90;;;;;;2046970;28;20383;-71
2023/02/01 01:34:56;;;;;;;11.75;4.70;;;5.10;99.90;;;;;;2040708;29;20040;-73
2023/02/01 01:35:56;;;;;;;9.50;4.28;;;5.10;99.90;;;;;;2037477;29;20050;-71
2023/02/01 01:36:57;;;;;;;16.00;5.13;;;5.10;99.90;;;;;;2045552;28;20271;-72
2023/02/01 01:37:58;;;;;;;12.52;4.50;;;5.10;99.90;;;;;;2028319;29;20032;-71
2023/02/01 01:38:58;;;;;;;11.88;4.13;;;5.10;99.90;;;;;;2031551;29;20047;-71
2023/02/01 01:39:59;;;;;;;13.15;4.47;;;5.10;99.90;;;;;;2036375;29;20062;-72
2023/02/01 01:41:01;;;;;;;12.20;4.45;;;5.10;99.90;;;;;;2028974;29;20022;-72
2023/02/01 01:42:01;;;;;;;14.02;4.43;;;5.10;99.90;;;;;;2038486;28;20090;-71
2023/02/01 01:43:02;;;;;;;10.85;4.35;;;5.10;99.90;;;;;;2048636;28;20101;-71
2023/02/01 01:44:26;;;;;;;13.25;4.22;;;5.10;99.90;;;;;;2039813;29;20482;-71
2023/02/01 01:45:32;;;;;;;13.18;4.47;;;5.00;99.90;;;;;;2028669;29;20272;-70
2023/02/01 01:46:37;;;;;;;13.60;4.60;;;5.10;99.90;;;;;;2032901;29;20035;-69
2023/02/01 01:47:47;;;;;;;14.35;4.22;;;5.00;99.90;;;;;;2037374;28;20039;-72
2023/02/01 01:48:53;;;;;;;12.00;4.10;;;5.10;99.90;;;;;;2048392;28;20796;-71
2023/02/01 01:49:54;;;;;;;12.32;3.95;;;5.10;99.90;;;;;;2040913;29;20027;-70
2023/02/01 01:51:08;;;;;;;10.00;4.10;;;5.00;99.90;;;;;;2040394;28;20118;-71
2023/02/01 01:52:09;;;;;;;11.15;4.50;;;5.10;99.90;;;;;;2044822;28;20031;-70
2023/02/01 01:53:12;;;;;;;11.05;3.97;;;5.10;99.90;;;;;;2046260;28;20020;-70
2023/02/01 01:54:46;;;;;;;16.42;4.65;;;5.10;99.90;;;;;;2047567;28;20063;-71
2023/02/01 01:55:49;;;;;;;12.85;4.40;;;5.10;99.90;;;;;;2033626;28;20035;-70
2023/02/01 01:56:55;;;;;;;14.88;4.32;;;5.10;99.90;;;;;;2040596;29;20031;-70
2023/02/01 01:58:00;;;;;;;12.57;4.28;;;5.10;99.90;;;;;;2039020;29;20059;-70
2023/02/01 01:59:01;;;;;;;13.20;4.35;;;5.10;99.90;;;;;;2044264;28;20193;-71
2023/02/01 02:00:15;;;;;;;19.27;4.78;;;5.10;99.90;;;;;;2049058;28;20050;-72
2023/02/01 02:01:16;;;;;;;14.20;4.53;;;5.10;99.90;;;;;;2046047;28;20027;-71
2023/02/01 02:02:17;;;;;;;13.18;4.15;;;5.10;99.90;;;;;;2038061;29;20136;-71
2023/02/01 02:03:23;;;;;;;14.80;4.57;;;5.10;99.90;;;;;;2033382;29;20620;-71
2023/02/01 02:04:25;;;;;;;14.35;4.55;;;5.10;99.90;;;;;;2045610;28;20052;-70
2023/02/01 02:05:26;;;;;;;11.90;4.47;;;5.10;99.90;;;;;;2043982;28;20027;-70
2023/02/01 02:06:40;;;;;;;13.10;4.30;;;5.10;99.90;;;;;;2044750;28;20038;-70
2023/02/01 02:07:46;;;;;;;12.57;3.92;;;5.10;99.90;;;;;;2035292;29;20118;-70
2023/02/01 02:08:46;;;;;;;12.82;4.35;;;5.10;99.90;;;;;;2039995;28;20099;-71
2023/02/01 02:09:47;;;;;;;15.57;4.15;;;5.10;99.90;;;;;;2036300;29;20027;-71
2023/02/01 02:11:00;;;;;;;10.95;4.10;;;5.10;99.90;;;;;;2036872;29;20039;-70
2023/02/01 02:12:01;;;;;;;15.05;4.13;;;5.10;99.90;;;;;;2045743;28;20027;-71
2023/02/01 02:13:02;;;;;;;14.57;4.20;;;5.10;99.90;;;;;;2038518;29;20401;-70
2023/02/01 02:14:05;;;;;;;12.75;4.10;;;5.10;99.90;;;;;;2041560;29;20059;-70
2023/02/01 02:15:08;;;;;;;13.55;3.92;;;5.10;99.90;;;;;;2047261;28;20026;-71
2023/02/01 02:16:29;;;;;;;15.43;4.30;;;5.10;99.90;;;;;;2046014;28;20160;-69
2023/02/01 02:17:43;;;;;;;13.15;4.15;;;5.20;99.90;;;;;;2040481;29;20039;-70
2023/02/01 02:18:57;;;;;;;15.00;4.22;;;5.20;99.90;;;;;;2037781;28;20497;-70
2023/02/01 02:20:35;;;;;;;14.15;3.97;;;5.10;99.90;;;;;;2043450;28;20027;-71
2023/02/01 02:21:56;;;;;;;14.85;4.70;;;5.20;99.90;;;;;;2046864;28;20503;-70
2023/02/01 02:23:06;;;;;;;16.92;4.05;;;5.20;99.90;;;;;;2044788;28;20032;-70
2023/02/01 02:24:29;;;;;;;11.65;4.20;;;5.20;99.90;;;;;;2042442;28;20316;-70
2023/02/01 02:26:01;;;;;;;12.27;3.92;;;5.20;99.90;;;;;;2047056;28;20050;-70
2023/02/01 02:27:24;;;;;;;12.05;4.00;;;5.20;99.90;;;;;;2035818;29;20055;-70
2023/02/01 02:28:42;;;;;;;12.15;3.70;;;5.20;99.90;;;;;;2039609;28;20036;-75
2023/02/01 02:30:02;;;;;;;18.02;4.32;;;5.20;99.90;;;;;;2042714;28;20042;-74
2023/02/01 02:31:42;;;;;;;13.00;4.15;;;5.20;99.90;;;;;;2041697;28;20039;-78
2023/02/01 02:32:52;;;;;;;13.50;4.18;;;5.20;99.90;;;;;;2036200;29;20799;-69
2023/02/01 02:34:27;;;;;;;11.55;4.30;;;5.20;99.90;;;;;;2029575;29;20035;-71
2023/02/01 02:35:45;;;;;;;12.35;3.80;;;5.10;99.90;;;;;;2038123;28;20039;-72
2023/02/01 02:37:11;;;;;;;12.98;4.15;;;5.10;99.90;;;;;;2042216;28;20340;-70
2023/02/01 02:38:29;;;;;;;13.27;4.32;;;5.10;99.90;;;;;;2036398;29;20052;-70
2023/02/01 02:40:06;;;;;;;13.02;4.28;;;5.10;99.90;;;;;;2025478;29;20036;-69
2023/02/01 02:47:23;;;;;;;14.80;3.90;;;5.10;99.90;;;;;;2035368;28;20106;-71
2023/02/01 02:47:52;;;;;;;18.02;4.38;;;5.00;99.90;;;;;;2048192;28;20027;-69
2023/02/01 02:49:21;;;;;;;13.80;4.07;;;5.00;99.90;;;;;;2042268;29;20144;-70
2023/02/01 02:54:57;;;;;;;15.65;4.25;;;5.00;99.90;;;;;;2047734;28;20258;-71
2023/02/01 03:04:20;;;;;;;16.38;4.18;;;5.00;99.90;;;;;;2045738;28;20031;-71
2023/02/01 03:05:23;;;;;;;12.90;4.07;;;5.00;99.90;;;;;;2040900;28;20035;-71
2023/02/01 03:06:25;;;;;;;12.23;4.18;;;5.00;99.90;;;;;;2038969;29;20039;-71
2023/02/01 03:07:44;;;;;;;12.82;4.00;;;5.00;99.90;;;;;;2032695;29;20039;-71
2023/02/01 03:08:46;;;;;;;14.60;3.90;;;5.00;99.90;;;;;;2037954;28;20043;-69
2023/02/01 03:09:48;;;;;;;14.77;4.03;;;5.00;99.90;;;;;;2049988;28;20397;-72
2023/02/01 03:11:02;;;;;;;14.30;4.35;;;5.00;99.90;;;;;;2045672;28;20035;-72
2023/02/01 03:13:51;;;;;;;14.77;3.88;;;5.00;99.90;;;;;;2041987;28;20033;-70
2023/02/01 03:14:57;;;;;;;13.57;3.97;;;4.90;99.90;;;;;;2048746;28;20027;-70
2023/02/01 03:16:09;;;;;;;12.75;4.10;;;5.00;99.90;;;;;;2048988;28;20027;-72
2023/02/01 03:17:25;;;;;;;14.70;4.00;;;5.00;99.90;;;;;;2032348;29;20131;-70
2023/02/01 03:18:51;;;;;;;14.77;4.07;;;5.00;99.90;;;;;;2035804;28;20051;-71
2023/02/01 03:19:53;;;;;;;14.32;4.30;;;5.00;99.90;;;;;;2038193;29;20071;-70
2023/02/01 03:20:56;;;;;;;16.83;4.63;;;4.90;99.90;;;;;;2038700;29;20023;-70
2023/02/01 03:22:05;;;;;;;13.10;4.00;;;5.00;99.90;;;;;;2036290;29;20032;-70
2023/02/01 03:23:07;;;;;;;14.70;4.35;;;5.00;99.90;;;;;;2023711;29;20179;-70
2023/02/01 03:24:18;;;;;;;14.20;4.28;;;5.00;99.90;;;;;;2026804;29;20079;-70
2023/02/01 03:25:25;;;;;;;15.65;4.20;;;5.00;99.90;;;;;;2040414;28;20123;-71
2023/02/01 03:26:28;;;;;;;16.83;4.18;;;5.00;99.90;;;;;;2046861;28;20038;-71
2023/02/01 03:27:36;;;;;;;17.17;4.30;;;5.00;99.90;;;;;;2038673;29;20123;-70
2023/02/01 03:28:43;;;;;;;13.30;3.95;;;5.00;99.90;;;;;;2043767;28;20020;-69
2023/02/01 03:30:02;;;;;;;16.73;4.38;;;4.90;99.90;;;;;;2036534;29;20512;-70
2023/02/01 03:31:04;;;;;;;12.55;3.90;;;5.00;99.90;;;;;;2038334;28;20476;-71
2023/02/01 03:32:05;;;;;;;12.82;4.00;;;5.00;99.90;;;;;;2043167;29;20050;-70
2023/02/01 03:33:13;;;;;;;24.98;9.55;;;5.00;99.90;;;;;;2039584;28;20032;-70
2023/02/01 03:34:14;;;;;;;12.30;4.18;;;5.00;99.90;;;;;;2048681;28;20031;-70
2023/02/01 03:35:17;;;;;;;14.98;4.40;;;5.00;99.90;;;;;;2034038;29;20849;-70
2023/02/01 03:36:31;;;;;;;14.85;4.30;;;5.00;99.90;;;;;;2032030;29;20506;-70
2023/02/01 03:37:31;;;;;;;14.88;4.25;;;5.00;99.90;;;;;;2033202;29;20086;-70
2023/02/01 03:38:54;;;;;;;13.00;4.10;;;5.10;99.90;;;;;;2040499;29;20474;-70
2023/02/01 03:40:03;;;;;;;14.60;3.92;;;5.10;99.90;;;;;;2040105;29;20705;-71
2023/02/01 03:41:26;;;;;;;15.05;4.18;;;5.10;99.90;;;;;;2038655;28;20036;-71
2023/02/01 03:42:34;;;;;;;15.23;4.10;;;5.10;99.90;;;;;;2048050;28;20035;-71
2023/02/01 03:43:43;;;;;;;18.65;4.88;;;5.00;99.90;;;;;;2037557;29;20922;-71
2023/02/01 03:45:11;;;;;;;15.80;4.30;;;5.00;99.90;;;;;;2038179;28;20034;-71
2023/02/01 03:46:18;;;;;;;16.17;4.25;;;5.10;99.90;;;;;;2046308;28;20367;-71
2023/02/01 03:47:24;;;;;;;15.43;4.50;;;5.10;99.90;;;;;;2039780;29;20441;-71
2023/02/01 03:48:28;;;;;;;13.02;4.13;;;5.10;99.90;;;;;;2039919;28;20110;-71
2023/02/01 03:49:38;;;;;;;17.33;4.60;;;5.10;99.90;;;;;;2047754;28;20482;-71
2023/02/01 03:50:46;;;;;;;14.10;3.92;;;5.10;99.90;;;;;;2049447;28;20763;-71
2023/02/01 03:51:50;;;;;;;13.90;4.22;;;5.00;99.90;;;;;;2036046;29;20031;-71
2023/02/01 03:53:20;;;;;;;11.57;4.13;;;5.10;99.90;;;;;;2040992;28;20031;-70
2023/02/01 03:54:21;;;;;;;12.45;4.07;;;5.10;99.90;;;;;;2046235;28;20042;-71
2023/02/01 03:55:25;;;;;;;13.13;3.88;;;5.10;99.90;;;;;;2038860;29;20055;-71
2023/02/01 03:56:28;;;;;;;16.25;4.50;;;5.10;99.90;;;;;;2038478;29;20122;-71
2023/02/01 03:57:36;;;;;;;15.55;4.20;;;5.10;99.90;;;;;;2040823;28;20046;-72
2023/02/01 03:58:37;;;;;;;11.70;3.75;;;5.10;99.90;;;;;;2041383;28;20471;-72
2023/02/01 03:59:42;;;;;;;13.13;4.10;;;5.10;99.90;;;;;;2041729;28;20032;-71
2023/02/01 04:00:53;;;;;;;12.15;4.15;;;5.10;99.90;;;;;;2049613;28;20513;-72
2023/02/01 04:01:54;;;;;;;13.85;4.50;;;5.10;99.90;;;;;;2048525;28;20053;-71
2023/02/01 04:02:55;;;;;;;15.50;4.43;;;5.10;99.90;;;;;;2039434;29;20039;-71
2023/02/01 04:03:57;;;;;;;11.88;4.38;;;5.10;99.90;;;;;;2039861;29;20063;-72
2023/02/01 04:04:58;;;;;;;15.77;4.13;;;5.10;99.90;;;;;;2039227;29;20509;-71
2023/02/01 04:05:58;;;;;;;12.60;4.20;;;5.10;99.90;;;;;;2038630;29;20311;-72
2023/02/01 04:07:02;;;;;;;15.77;4.60;;;5.10;99.90;;;;;;2038922;29;20032;-71
2023/02/01 04:08:03;;;;;;;13.70;4.38;;;5.10;99.90;;;;;;2041471;29;20042;-71
2023/02/01 04:09:03;;;;;;;11.57;4.20;;;5.10;99.90;;;;;;2047134;28;20554;-71
2023/02/01 04:10:04;;;;;;;14.20;4.10;;;5.10;99.90;;;;;;2046760;28;20035;-72
2023/02/01 04:11:05;;;;;;;13.70;4.05;;;5.10;99.90;;;;;;2048905;28;20460;-71
2023/02/01 04:12:06;;;;;;;16.23;4.15;;;5.10;99.90;;;;;;2052092;28;20042;-71
2023/02/01 04:13:07;;;;;;;11.88;3.75;;;5.10;99.90;;;;;;2038147;29;20137;-71
2023/02/01 04:14:08;;;;;;;13.05;3.97;;;5.10;99.90;;;;;;2039280;29;20035;-70
2023/02/01 04:15:09;;;;;;;15.52;4.00;;;5.10;99.90;;;;;;2048713;28;20070;-70
2023/02/01 04:16:10;;;;;;;15.77;4.07;;;5.10;99.90;;;;;;2038533;29;20039;-70
2023/02/01 04:17:10;;;;;;;14.82;4.30;;;5.10;99.90;;;;;;2041362;29;20952;-70
2023/02/01 04:18:11;;;;;;;18.25;4.47;;;5.10;99.90;;;;;;2038739;29;20110;-70
2023/02/01 04:19:11;;;;;;;16.70;4.55;;;5.10;99.90;;;;;;2039096;28;20039;-70
2023/02/01 04:20:12;;;;;;;13.40;4.10;;;5.20;99.90;;;;;;2046115;28;20038;-70
2023/02/01 04:21:12;;;;;;;13.60;4.20;;;5.10;99.90;;;;;;2050276;28;20105;-72
2023/02/01 04:22:13;;;;;;;11.50;3.83;;;5.10;99.90;;;;;;2047280;28;20041;-69
2023/02/01 04:23:15;;;;;;;12.43;4.13;;;5.10;99.90;;;;;;2045306;28;20031;-70
2023/02/01 04:24:15;;;;;;;15.43;4.22;;;5.20;99.90;;;;;;2044153;28;20095;-70
2023/02/01 04:25:17;;;;;;;13.07;4.50;;;5.20;99.90;;;;;;2046471;28;20035;-70
2023/02/01 04:26:21;;;;;;;17.80;4.10;;;5.20;99.90;;;;;;2047424;28;20019;-70
2023/02/01 04:27:22;;;;;;;17.42;4.47;;;5.10;99.90;;;;;;2048277;28;20138;-70
2023/02/01 04:28:22;;;;;;;14.93;3.90;;;5.20;99.90;;;;;;2043027;28;20027;-71
2023/02/01 04:29:23;;;;;;;12.68;3.70;;;5.20;99.90;;;;;;2044283;28;20117;-70
2023/02/01 04:30:23;;;;;;;18.10;4.47;;;5.20;99.90;;;;;;2050153;28;20074;-70
2023/02/01 04:31:27;;;;;;;16.23;4.40;;;5.20;99.90;;;;;;2048943;28;20027;-71
2023/02/01 04:32:28;;;;;;;11.52;3.75;;;5.10;99.90;;;;;;2047530;28;20075;-71
2023/02/01 04:33:29;;;;;;;13.55;4.20;;;5.20;99.90;;;;;;2047320;28;20669;-70
2023/02/01 04:34:29;;;;;;;13.07;4.07;;;5.10;99.90;;;;;;2048248;28;20112;-70
2023/02/01 04:35:30;;;;;;;13.32;4.00;;;5.10;99.90;;;;;;2050600;28;20402;-70
2023/02/01 04:36:30;;;;;;;13.55;3.80;;;5.10;99.90;;;;;;2047645;28;20038;-70
2023/02/01 04:37:31;;;;;;;17.52;4.10;;;5.10;99.90;;;;;;2047435;28;20030;-69
2023/02/01 04:38:32;;;;;;;13.27;4.03;;;5.10;99.90;;;;;;2049146;28;20039;-69
2023/02/01 04:39:32;;;;;;;16.13;3.80;;;5.10;99.90;;;;;;2039885;29;20139;-70
2023/02/01 04:40:33;;;;;;;13.25;3.97;;;5.10;99.90;;;;;;2036783;29;20482;-70
2023/02/01 04:41:34;;;;;;;14.10;4.45;;;5.10;99.90;;;;;;2047159;28;20039;-69
2023/02/01 04:42:34;;;;;;;10.70;3.63;;;5.10;99.90;;;;;;2048715;28;20039;-69
2023/02/01 04:43:35;;;;;;;13.88;4.30;;;5.10;99.90;;;;;;2048440;28;20701;-70
2023/02/01 04:44:39;;;;;;;16.60;4.30;;;5.10;99.90;;;;;;2033912;29;20027;-69
2023/02/01 04:45:39;;;;;;;15.23;4.22;;;5.10;99.90;;;;;;2035171;29;20040;-70
2023/02/01 04:46:40;;;;;;;15.50;4.15;;;5.10;99.90;;;;;;2047220;28;20039;-70
2023/02/01 04:47:40;;;;;;;16.55;4.10;;;5.10;99.90;;;;;;2048991;28;20046;-70
2023/02/01 04:48:41;;;;;;;11.75;3.90;;;5.10;99.90;;;;;;2046368;28;20059;-70
2023/02/01 04:49:42;;;;;;;17.63;4.35;;;5.10;99.90;;;;;;2038254;29;20562;-70
2023/02/01 04:50:47;;;;;;;14.05;4.25;;;5.10;99.90;;;;;;2039107;29;20218;-70
2023/02/01 04:51:48;;;;;;;17.50;4.40;;;5.10;99.90;;;;;;2045135;28;20018;-72
2023/02/01 04:52:49;;;;;;;13.25;3.80;;;5.10;99.90;;;;;;2048184;28;20102;-73
2023/02/01 04:53:49;;;;;;;13.98;4.10;;;5.10;99.90;;;;;;2049676;28;20030;-74
2023/02/01 04:54:50;;;;;;;12.93;3.83;;;5.10;99.90;;;;;;2043490;28;20126;-74
2023/02/01 04:55:50;;;;;;;16.83;4.43;;;5.10;99.90;;;;;;2037039;29;20035;-74
2023/02/01 04:56:51;;;;;;;16.63;4.30;;;5.10;99.90;;;;;;2038372;29;20454;-73
2023/02/01 04:57:51;;;;;;;14.48;4.13;;;5.10;99.90;;;;;;2036889;29;20111;-74
2023/02/01 04:58:52;;;;;;;12.63;4.30;;;5.10;99.90;;;;;;2040412;29;20035;-74
2023/02/01 04:59:53;;;;;;;12.88;4.03;;;5.10;99.90;;;;;;2046888;28;20728;-74
2023/02/01 05:00:53;;;;;;;17.58;4.43;;;5.10;99.90;;;;;;2038635;29;20522;-73
2023/02/01 05:01:54;;;;;;;15.13;3.92;;;5.10;99.90;;;;;;2037605;29;20027;-74
2023/02/01 05:02:54;;;;;;;13.30;4.00;;;5.10;99.90;;;;;;2039654;29;20063;-74
2023/02/01 05:03:55;;;;;;;19.80;4.22;;;5.10;99.90;;;;;;2039919;29;20525;-75
2023/02/01 05:04:56;;;;;;;16.75;4.53;;;5.10;99.90;;;;;;2040678;29;20110;-74
2023/02/01 05:05:56;;;;;;;15.80;4.13;;;5.10;99.90;;;;;;2037191;29;20128;-75
2023/02/01 05:06:57;;;;;;;15.30;4.57;;;5.10;99.90;;;;;;2046828;28;20027;-75
2023/02/01 05:07:57;;;;;;;13.55;4.30;;;5.10;99.90;;;;;;2048130;28;20023;-75
2023/02/01 05:08:58;;;;;;;13.15;3.80;;;5.10;99.90;;;;;;2049059;28;20380;-74
2023/02/01 05:09:58;;;;;;;14.52;4.05;;;5.10;99.90;;;;;;2046824;28;20041;-72
2023/02/01 05:11:02;;;;;;;14.02;3.92;;;5.10;99.90;;;;;;2038971;29;20050;-74
2023/02/01 05:14:41;;;;;;;15.10;4.43;;;5.10;99.90;;;;;;2038250;29;20033;-75
2023/02/01 05:15:41;;;;;;;11.98;3.85;;;5.10;99.90;;;;;;2029678;29;20071;-75
2023/02/01 05:16:42;;;;;;;19.80;6.53;;;5.10;99.90;;;;;;2040158;29;20027;-75
2023/02/01 05:17:42;;;;;;;19.88;4.20;;;5.10;99.90;;;;;;2048120;28;20244;-76
2023/02/01 05:18:43;;;;;;;16.92;4.28;;;5.10;99.90;;;;;;2046427;28;20038;-76
2023/02/01 05:19:44;;;;;;;15.75;4.30;;;5.10;99.90;;;;;;2047185;28;20065;-74
2023/02/01 05:20:44;;;;;;;16.63;3.70;;;5.10;99.90;;;;;;2046732;28;20381;-76
2023/02/01 05:21:51;;;;;;;14.00;4.55;;;5.10;99.90;;;;;;2047022;28;20761;-73
2023/02/01 05:22:51;;;;;;;15.80;4.03;;;5.10;99.90;;;;;;2044192;28;20031;-76
2023/02/01 05:25:21;;;;;;;18.02;4.68;;;5.10;99.90;;;;;;2033478;28;20061;-75
2023/02/01 05:26:22;;;;;;;16.80;4.05;;;5.10;99.90;;;;;;2047003;28;20038;-74
2023/02/01 05:27:23;;;;;;;18.92;4.85;;;5.20;99.90;;;;;;2047408;28;20263;-74
2023/02/01 05:28:24;;;;;;;15.82;3.97;;;5.10;99.90;;;;;;2042237;29;20031;-74
2023/02/01 05:29:24;;;;;;;15.85;4.10;;;5.10;99.90;;;;;;2037518;29;20538;-74
2023/02/01 05:30:25;;;;;;;14.90;4.00;;;5.10;99.90;;;;;;2048926;28;20066;-74
2023/02/01 05:31:25;;;;;;;13.10;4.00;;;5.10;99.90;;;;;;2044066;28;20955;-74
2023/02/01 05:32:26;;;;;;;13.93;3.70;;;5.10;99.90;;;;;;2040917;29;20105;-74
2023/02/01 05:33:27;;;;;;;14.32;3.97;;;5.10;99.90;;;;;;2040459;29;20081;-74
2023/02/01 05:34:27;;;;;;;18.83;4.22;;;5.10;99.90;;;;;;2042272;28;20034;-74
2023/02/01 05:35:28;;;;;;;17.33;4.10;;;5.10;99.90;;;;;;2046311;28;20041;-74
2023/02/01 05:36:28;;;;;;;18.30;3.85;;;5.20;99.90;;;;;;2034322;29;20035;-74
2023/02/01 05:37:29;;;;;;;20.73;4.20;;;5.20;99.90;;;;;;2024301;29;20036;-75
2023/02/01 05:38:30;;;;;;;17.13;4.00;;;5.20;99.90;;;;;;2037371;29;20602;-74
2023/02/01 05:39:30;;;;;;;16.77;4.00;;;5.20;99.90;;;;;;2044551;28;20049;-74
2023/02/01 05:40:31;;;;;;;18.33;4.15;;;5.20;99.90;;;;;;2048230;28;20081;-73
2023/02/01 05:41:31;;;;;;;15.95;3.80;;;5.20;99.90;;;;;;2049229;28;20039;-73
2023/02/01 05:42:32;;;;;;;14.00;3.80;;;5.20;99.90;;;;;;2045386;28;20086;-74
2023/02/01 05:43:32;;;;;;;17.10;4.38;;;5.20;99.90;;;;;;2032254;29;20044;-76
2023/02/01 05:44:33;;;;;;;15.80;3.97;;;5.20;99.90;;;;;;2038420;29;20118;-74
2023/02/01 05:45:33;;;;;;;14.15;3.92;;;5.20;99.90;;;;;;2049263;28;20528;-74
2023/02/01 05:46:35;;;;;;;18.83;4.53;;;5.20;99.90;;;;;;2046920;28;20114;-74
2023/02/01 05:47:35;;;;;;;15.88;4.10;;;5.20;99.90;;;;;;2047259;28;20248;-74
2023/02/01 05:48:36;;;;;;;14.35;4.00;;;5.20;99.90;;;;;;2034673;29;20066;-74
2023/02/01 05:49:36;;;;;;;18.30;4.30;;;5.20;99.90;;;;;;2040674;29;20510;-73
2023/02/01 05:50:38;;;;;;;17.27;4.25;;;5.20;99.90;;;;;;2042179;28;20102;-75
2023/02/01 05:51:43;;;;;;;16.17;4.35;;;5.20;99.90;;;;;;2043518;28;20527;-73
2023/02/01 05:52:43;;;;;;;16.83;4.65;;;5.20;99.90;;;;;;2037182;29;20035;-74
2023/02/01 05:53:44;;;;;;;18.55;4.25;;;5.20;99.90;;;;;;2040070;29;20082;-73
2023/02/01 05:54:46;;;;;;;16.65;4.32;;;5.20;99.90;;;;;;2049786;28;20050;-73
2023/02/01 05:55:47;;;;;;;15.35;4.03;;;5.20;99.90;;;;;;2048945;28;20042;-74
2023/02/01 05:56:47;;;;;;;14.90;3.95;;;5.20;99.90;;;;;;2038597;29;20435;-74
2023/02/01 05:57:48;;;;;;;18.00;4.10;;;5.20;99.90;;;;;;2038174;29;20434;-74
2023/02/01 05:58:48;;;;;;;17.05;4.47;;;5.20;99.90;;;;;;2048033;28;20038;-74